Time;durP1;ratioP1;P1;durP2;ratioP2;P2;SDS_P1;SDS_P2;PMS_P1;PMS_P2;Temp;Humidity;BMP_temperature;BMP_pressure;BME280_temperature;BME280_humidity;BME280_pressure;Samples;Min_cycle;Max_cycle;Signal;HPM_P1;HPM_P2
2022/10/05 00:01:59;;;;;;;0.32;0.32;;;13.50;98.00;;;;;;4865428;29;20037;-75
2022/10/05 00:07:46;;;;;;;0.20;0.20;;;13.30;98.00;;;;;;4881286;29;20040;-75
2022/10/05 00:10:24;;;;;;;0.00;0.00;;;13.20;98.00;;;;;;4880878;29;20061;-75
2022/10/05 00:12:59;;;;;;;0.10;0.10;;;13.20;98.00;;;;;;4865243;29;20080;-75
2022/10/05 00:18:59;;;;;;;0.32;0.32;;;13.20;98.00;;;;;;4881137;29;20158;-75
2022/10/05 00:21:37;;;;;;;1.17;0.98;;;13.20;98.00;;;;;;4866320;29;20077;-76
2022/10/05 00:27:46;;;;;;;0.15;0.15;;;13.30;98.00;;;;;;4978217;28;20081;-76
2022/10/05 00:30:39;;;;;;;0.10;0.10;;;13.30;98.00;;;;;;4977437;28;20031;-75
2022/10/05 00:33:14;;;;;;;0.03;0.03;;;13.30;98.00;;;;;;4977373;28;20031;-75
2022/10/05 00:39:16;;;;;;;0.00;0.00;;;13.10;98.00;;;;;;4977632;28;20105;-75
2022/10/05 00:42:45;;;;;;;0.00;0.00;;;12.90;98.00;;;;;;4960264;28;20027;-75
2022/10/05 00:45:44;;;;;;;0.13;0.13;;;12.80;98.00;;;;;;4880360;29;20045;-75
2022/10/05 00:48:24;;;;;;;0.17;0.17;;;12.70;98.00;;;;;;4880504;29;20049;-75
2022/10/05 00:51:44;;;;;;;0.30;0.30;;;12.60;98.00;;;;;;4880393;29;20378;-75
2022/10/05 00:57:53;;;;;;;0.00;0.00;;;12.60;98.00;;;;;;4880761;29;20127;-75
2022/10/05 01:00:28;;;;;;;0.00;0.00;;;12.50;98.00;;;;;;4880409;29;20045;-75
2022/10/05 01:03:26;;;;;;;0.10;0.10;;;12.50;98.00;;;;;;4880470;29;20088;-76
2022/10/05 01:09:31;;;;;;;1.55;0.20;;;12.40;98.00;;;;;;4880613;29;20052;-75
2022/10/05 01:12:33;;;;;;;0.00;0.00;;;12.50;98.00;;;;;;4880365;29;20041;-75
2022/10/05 01:19:21;;;;;;;0.35;0.35;;;12.50;98.00;;;;;;4901721;28;20401;-75
2022/10/05 01:22:03;;;;;;;0.00;0.00;;;12.50;98.00;;;;;;4877292;29;20132;-75
2022/10/05 01:24:48;;;;;;;0.10;0.10;;;12.60;98.00;;;;;;4880184;29;20421;-75
2022/10/05 01:27:39;;;;;;;0.00;0.00;;;12.60;98.00;;;;;;4880256;29;20049;-75
2022/10/05 01:30:26;;;;;;;0.10;0.10;;;12.60;98.00;;;;;;4870557;29;20041;-76
2022/10/05 01:33:14;;;;;;;0.00;0.00;;;12.50;98.00;;;;;;4869333;29;20061;-76
2022/10/05 01:39:54;;;;;;;0.10;0.10;;;12.50;98.00;;;;;;4883519;29;20124;-76
2022/10/05 01:42:57;;;;;;;0.05;0.05;;;12.40;98.00;;;;;;4827963;29;20054;-75
2022/10/05 01:49:11;;;;;;;0.03;0.03;;;12.40;98.00;;;;;;4828181;29;20162;-75
2022/10/05 01:59:17;;;;;;;0.10;0.10;;;12.40;98.00;;;;;;4918554;28;20130;-75
2022/10/05 02:02:02;;;;;;;0.00;0.00;;;12.40;98.00;;;;;;4960822;28;20039;-75
2022/10/05 02:05:02;;;;;;;0.10;0.10;;;12.40;98.00;;;;;;4979788;28;20384;-75
2022/10/05 02:08:07;;;;;;;0.08;0.08;;;12.50;98.00;;;;;;4979763;28;20038;-75
2022/10/05 02:11:20;;;;;;;0.13;0.13;;;12.60;98.00;;;;;;4979622;28;20420;-75
2022/10/05 02:14:11;;;;;;;0.00;0.00;;;12.60;98.00;;;;;;4979605;28;20038;-75
2022/10/05 02:17:04;;;;;;;0.20;0.20;;;12.50;98.00;;;;;;4979505;28;20061;-75
2022/10/05 02:19:56;;;;;;;0.00;0.00;;;12.50;98.00;;;;;;4962463;28;20109;-75
2022/10/05 02:22:42;;;;;;;0.08;0.08;;;12.40;98.00;;;;;;4962309;28;20037;-75
2022/10/05 02:29:03;;;;;;;0.22;0.22;;;12.40;98.00;;;;;;4979836;28;20041;-75
2022/10/05 02:31:49;;;;;;;0.00;0.00;;;12.40;98.00;;;;;;4979091;28;20411;-75
2022/10/05 02:37:24;;;;;;;0.38;0.38;;;12.40;98.00;;;;;;4979438;28;19925;-76
2022/10/05 02:40:15;;;;;;;0.30;0.30;;;12.40;98.00;;;;;;4978340;28;20081;-76
2022/10/05 02:43:37;;;;;;;0.05;0.05;;;12.40;98.00;;;;;;4962055;28;20058;-75
2022/10/05 02:49:43;;;;;;;0.20;0.20;;;12.60;98.00;;;;;;4882304;29;20044;-75
2022/10/05 02:52:51;;;;;;;0.00;0.00;;;12.80;98.00;;;;;;4882012;29;20564;-75
2022/10/05 02:58:53;;;;;;;0.10;0.10;;;13.20;98.00;;;;;;4882360;29;20089;-75
2022/10/05 03:01:50;;;;;;;0.20;0.20;;;13.40;98.00;;;;;;4867753;29;20053;-75
2022/10/05 03:08:14;;;;;;;0.20;0.20;;;13.70;98.00;;;;;;4901000;28;20058;-75
2022/10/05 03:10:58;;;;;;;0.05;0.05;;;13.90;98.00;;;;;;4961449;28;20038;-75
2022/10/05 03:17:41;;;;;;;0.17;0.17;;;14.10;98.00;;;;;;4938501;29;20499;-75
2022/10/05 03:20:18;;;;;;;0.22;0.22;;;14.20;98.00;;;;;;4938132;29;20075;-76
2022/10/05 03:23:39;;;;;;;0.00;0.00;;;14.10;98.00;;;;;;4922224;29;20038;-76
2022/10/05 03:29:51;;;;;;;0.05;0.05;;;14.00;98.00;;;;;;4900342;29;20044;-76
2022/10/05 03:33:09;;;;;;;0.00;0.00;;;14.10;98.00;;;;;;4900051;29;20053;-76
2022/10/05 03:39:09;;;;;;;0.30;0.30;;;14.10;98.00;;;;;;4900342;29;20100;-75
2022/10/05 03:42:19;;;;;;;0.30;0.30;;;14.00;98.00;;;;;;4899871;29;20080;-75
2022/10/05 03:49:09;;;;;;;0.00;0.00;;;13.80;98.00;;;;;;4914539;28;20059;-76
2022/10/05 03:51:50;;;;;;;0.35;0.35;;;13.90;98.00;;;;;;4881168;29;20153;-76
2022/10/05 03:57:39;;;;;;;0.08;0.08;;;14.10;98.00;;;;;;4881242;29;20078;-76
2022/10/05 04:00:23;;;;;;;0.13;0.13;;;14.30;98.00;;;;;;4881018;29;20048;-76
2022/10/05 04:03:48;;;;;;;0.00;0.00;;;14.50;98.00;;;;;;4865588;29;20037;-76
2022/10/05 04:09:53;;;;;;;0.00;0.00;;;14.70;98.00;;;;;;4844042;29;20053;-76
2022/10/05 04:12:39;;;;;;;0.00;0.00;;;14.70;98.00;;;;;;4843729;29;20071;-76
2022/10/05 04:19:26;;;;;;;0.05;0.05;;;14.70;98.00;;;;;;4866291;29;20067;-76
2022/10/05 04:22:20;;;;;;;0.20;0.20;;;14.70;98.00;;;;;;4880611;29;20045;-76
2022/10/05 04:28:48;;;;;;;0.13;0.13;;;14.70;98.00;;;;;;4884986;29;20047;-75
2022/10/05 04:38:13;;;;;;;0.00;0.00;;;14.70;98.00;;;;;;4862065;29;20102;-75
2022/10/05 04:41:15;;;;;;;0.00;0.00;;;14.70;98.00;;;;;;4861853;29;20034;-76
2022/10/05 04:47:05;;;;;;;0.00;0.00;;;14.80;98.00;;;;;;4899678;29;20051;-76
2022/10/05 04:49:50;;;;;;;0.10;0.10;;;14.90;97.80;;;;;;4899157;29;20164;-75
2022/10/05 04:52:49;;;;;;;0.30;0.30;;;15.00;97.10;;;;;;4899177;29;20029;-75
2022/10/05 04:59:43;;;;;;;0.10;0.10;;;15.00;96.90;;;;;;4977254;28;20053;-75
2022/10/05 05:02:45;;;;;;;0.10;0.10;;;15.00;97.00;;;;;;4880247;29;20041;-75
2022/10/05 05:08:50;;;;;;;0.00;0.00;;;15.00;96.60;;;;;;4884321;29;20112;-75
2022/10/05 05:15:23;;;;;;;0.10;0.10;;;15.10;96.70;;;;;;4884202;29;20043;-76
2022/10/05 05:18:26;;;;;;;0.28;0.28;;;15.10;97.00;;;;;;4883880;29;20311;-75
2022/10/05 05:21:13;;;;;;;0.38;0.38;;;15.20;96.40;;;;;;4868181;29;20033;-75
2022/10/05 05:24:06;;;;;;;0.10;0.10;;;15.20;96.50;;;;;;4868123;29;20100;-75
2022/10/05 05:27:07;;;;;;;0.22;0.22;;;15.10;96.70;;;;;;4883611;29;20056;-75
2022/10/05 05:30:28;;;;;;;0.10;0.10;;;15.10;96.90;;;;;;4883732;29;20351;-75
2022/10/05 05:33:13;;;;;;;0.00;0.00;;;15.00;97.50;;;;;;4883308;29;20338;-75
2022/10/05 05:39:19;;;;;;;0.10;0.10;;;15.10;96.70;;;;;;4981075;28;20042;-75
2022/10/05 05:42:09;;;;;;;0.10;0.10;;;15.10;96.60;;;;;;4980338;28;20026;-75
2022/10/05 05:47:59;;;;;;;0.13;0.13;;;15.20;95.40;;;;;;4980767;28;20331;-75
2022/10/05 05:50:50;;;;;;;0.00;0.00;;;15.30;95.60;;;;;;4947342;28;20035;-75
2022/10/05 05:57:37;;;;;;;0.00;0.00;;;15.10;97.50;;;;;;4940118;29;20107;-75
2022/10/05 06:00:21;;;;;;;0.10;0.10;;;15.00;98.00;;;;;;4939541;29;20050;-75
2022/10/05 06:03:43;;;;;;;0.00;0.00;;;14.90;98.00;;;;;;4939637;29;20030;-75
2022/10/05 06:13:18;;;;;;;;;;;14.70;98.00;;;;;;4902293;29;20051;-75
2022/10/05 06:19:17;;;;;;;0.00;0.00;;;14.70;98.00;;;;;;4901812;29;20075;-75
2022/10/05 06:22:40;;;;;;;0.65;0.65;;;14.70;98.00;;;;;;4901324;29;20040;-75
2022/10/05 06:28:36;;;;;;;0.00;0.00;;;14.70;98.00;;;;;;4916678;29;20393;-75
2022/10/05 06:38:16;;;;;;;0.55;0.55;;;15.00;98.00;;;;;;4920209;29;20133;-75
2022/10/05 06:41:13;;;;;;;0.00;0.00;;;15.00;98.00;;;;;;4919945;29;20035;-75
2022/10/05 06:43:47;;;;;;;;;;;15.00;98.00;;;;;;4920314;29;20114;-75
2022/10/05 06:50:12;;;;;;;0.40;0.40;;;15.00;98.00;;;;;;4979045;28;20062;-75
2022/10/05 06:53:46;;;;;;;0.00;0.00;;;15.00;98.00;;;;;;4979073;28;20309;-75
2022/10/05 06:56:31;;;;;;;0.22;0.22;;;15.00;98.00;;;;;;4873039;29;20052;-75
2022/10/05 06:59:15;;;;;;;0.00;0.00;;;15.10;98.00;;;;;;4882034;29;20053;-75
2022/10/05 07:02:39;;;;;;;0.00;0.00;;;15.20;98.00;;;;;;4882116;29;20116;-75
2022/10/05 07:08:29;;;;;;;0.20;0.20;;;15.30;98.00;;;;;;4882284;29;20048;-75
2022/10/05 07:11:16;;;;;;;0.30;0.30;;;15.40;98.00;;;;;;4881906;29;20466;-75
2022/10/05 07:17:25;;;;;;;1.40;0.68;;;15.50;98.00;;;;;;4978900;28;20089;-75
2022/10/05 07:20:40;;;;;;;0.55;0.55;;;15.60;98.00;;;;;;4978546;28;20034;-75
2022/10/05 07:23:41;;;;;;;7.75;0.73;;;15.60;98.00;;;;;;4978360;28;20034;-75
2022/10/05 07:30:14;;;;;;;0.00;0.00;;;15.80;98.00;;;;;;4978365;28;20041;-75
2022/10/05 07:33:13;;;;;;;0.30;0.30;;;15.80;98.00;;;;;;4881410;29;20041;-75
2022/10/05 07:39:22;;;;;;;0.00;0.00;;;15.90;98.00;;;;;;4881723;29;20056;-76
2022/10/05 07:42:22;;;;;;;0.00;0.00;;;16.00;98.00;;;;;;4881206;29;20427;-76
2022/10/05 07:45:36;;;;;;;0.10;0.10;;;16.10;98.00;;;;;;4865595;29;20493;-75
2022/10/05 07:48:31;;;;;;;0.00;0.00;;;16.20;98.00;;;;;;4825933;29;20180;-75
2022/10/05 07:51:55;;;;;;;0.00;0.00;;;16.30;98.00;;;;;;4825987;29;20462;-75
2022/10/05 07:55:06;;;;;;;0.05;0.05;;;16.30;98.00;;;;;;4771503;30;20075;-76
2022/10/05 07:57:46;;;;;;;0.00;0.00;;;16.30;98.00;;;;;;4781490;29;20062;-76
2022/10/05 08:00:23;;;;;;;0.22;0.22;;;16.30;98.00;;;;;;4825881;29;20104;-76
2022/10/05 08:03:17;;;;;;;0.85;0.85;;;16.30;98.00;;;;;;4810435;29;20153;-76
2022/10/05 08:06:48;;;;;;;0.10;0.10;;;16.40;98.00;;;;;;4841769;29;20357;-76
2022/10/05 08:09:49;;;;;;;2.08;1.15;;;16.50;98.00;;;;;;4880849;29;20037;-76
2022/10/05 08:12:52;;;;;;;0.10;0.10;;;16.80;98.00;;;;;;4865360;29;20053;-75
2022/10/05 08:19:17;;;;;;;0.20;0.20;;;18.20;95.40;;;;;;4880809;29;20414;-75
2022/10/05 08:22:05;;;;;;;0.15;0.10;;;19.10;90.80;;;;;;4918285;29;20040;-75
2022/10/05 08:24:57;;;;;;;0.13;0.10;;;20.10;89.90;;;;;;4918269;29;20032;-76
2022/10/05 08:27:57;;;;;;;0.65;0.63;;;20.80;86.30;;;;;;4929769;28;20030;-76
2022/10/05 08:30:56;;;;;;;3.03;2.05;;;21.40;84.90;;;;;;4977427;28;20031;-76
2022/10/05 08:34:19;;;;;;;0.32;0.32;;;21.90;82.60;;;;;;4977755;28;20027;-77
2022/10/05 08:37:07;;;;;;;0.32;0.32;;;22.20;81.40;;;;;;4977276;28;20383;-76
2022/10/05 08:43:48;;;;;;;0.08;0.08;;;22.30;80.90;;;;;;4884711;29;20055;-74
2022/10/05 08:46:47;;;;;;;0.10;0.10;;;22.80;79.60;;;;;;4884275;29;20029;-74
2022/10/05 08:49:59;;;;;;;0.10;0.10;;;22.90;79.50;;;;;;4884287;29;20040;-74
2022/10/05 08:53:12;;;;;;;0.32;0.28;;;23.30;79.00;;;;;;4884406;29;20083;-74
2022/10/05 08:56:17;;;;;;;0.10;0.10;;;23.50;76.20;;;;;;4879273;29;20391;-74
2022/10/05 08:59:56;;;;;;;0.00;0.00;;;23.30;77.10;;;;;;4884066;29;20132;-74
2022/10/05 09:03:08;;;;;;;0.15;0.15;;;23.50;76.70;;;;;;4774521;30;20050;-74
2022/10/05 09:06:13;;;;;;;0.20;0.20;;;23.50;76.50;;;;;;4774508;30;20048;-74
2022/10/05 09:13:10;;;;;;;0.20;0.20;;;23.80;76.30;;;;;;4797160;29;20068;-74
2022/10/05 09:16:12;;;;;;;0.13;0.13;;;24.00;75.80;;;;;;4839829;29;20049;-74
2022/10/05 09:19:15;;;;;;;0.40;0.30;;;23.80;75.50;;;;;;4883648;29;20053;-74
2022/10/05 09:22:14;;;;;;;0.17;0.17;;;23.70;74.60;;;;;;4868162;29;20052;-74
2022/10/05 09:24:56;;;;;;;0.10;0.10;;;23.60;76.50;;;;;;4868094;29;20120;-74
2022/10/05 09:28:16;;;;;;;1.55;0.43;;;23.70;78.20;;;;;;4883728;29;20353;-74
2022/10/05 09:31:15;;;;;;;0.00;0.00;;;24.10;77.30;;;;;;4817036;29;20077;-74
2022/10/05 09:34:34;;;;;;;0.15;0.13;;;24.20;76.90;;;;;;4827962;29;20317;-74
2022/10/05 09:37:45;;;;;;;0.17;0.15;;;24.30;76.00;;;;;;4833823;29;20057;-74
2022/10/05 09:40:46;;;;;;;0.00;0.00;;;24.10;74.70;;;;;;4883588;29;20052;-74
2022/10/05 09:47:07;;;;;;;0.17;0.17;;;24.30;75.30;;;;;;4886264;28;20399;-74
2022/10/05 09:50:09;;;;;;;0.15;0.15;;;24.30;75.90;;;;;;4980078;28;20019;-74
2022/10/05 09:53:13;;;;;;;0.30;0.30;;;24.70;75.80;;;;;;4980269;28;20034;-74
2022/10/05 09:56:07;;;;;;;0.50;0.50;;;23.60;74.70;;;;;;4980029;28;20061;-74
2022/10/05 09:58:52;;;;;;;0.65;0.52;;;22.40;77.50;;;;;;4980004;28;20501;-74
2022/10/05 10:02:15;;;;;;;0.22;0.22;;;22.30;80.50;;;;;;4980102;28;20442;-74
2022/10/05 10:05:37;;;;;;;0.15;0.08;;;22.80;78.00;;;;;;4883009;29;20506;-74
2022/10/05 10:08:19;;;;;;;0.20;0.20;;;23.20;76.50;;;;;;4827656;29;20045;-74
2022/10/05 10:11:20;;;;;;;0.10;0.10;;;23.60;75.90;;;;;;4883008;29;20037;-74
2022/10/05 10:14:48;;;;;;;0.20;0.20;;;24.00;76.00;;;;;;4882936;29;20084;-74
2022/10/05 10:17:38;;;;;;;0.45;0.45;;;24.30;75.40;;;;;;4882579;29;20045;-74
2022/10/05 10:20:39;;;;;;;0.17;0.13;;;24.80;74.20;;;;;;4882755;29;20045;-74
2022/10/05 10:23:53;;;;;;;0.10;0.10;;;25.00;73.40;;;;;;4882673;29;20093;-74
2022/10/05 10:27:05;;;;;;;0.30;0.10;;;24.70;73.90;;;;;;4910786;28;20026;-74
2022/10/05 10:30:19;;;;;;;0.10;0.10;;;24.30;76.60;;;;;;4979391;28;20454;-74
2022/10/05 10:33:16;;;;;;;0.10;0.10;;;24.50;76.70;;;;;;4962842;28;20039;-74
2022/10/05 10:36:20;;;;;;;0.65;0.43;;;24.40;74.80;;;;;;4979246;28;20050;-74
2022/10/05 10:39:16;;;;;;;0.28;0.28;;;24.30;74.80;;;;;;4866628;29;20045;-74
2022/10/05 10:42:23;;;;;;;1.02;0.55;;;24.10;77.20;;;;;;4882346;29;20029;-74
2022/10/05 10:45:18;;;;;;;0.38;0.38;;;24.00;76.10;;;;;;4882237;29;20067;-74
2022/10/05 10:48:40;;;;;;;0.00;0.00;;;23.60;77.70;;;;;;4866968;29;20037;-74
2022/10/05 10:51:19;;;;;;;0.10;0.10;;;23.20;80.10;;;;;;4817008;29;20054;-74
2022/10/05 10:57:15;;;;;;;0.20;0.20;;;22.70;81.00;;;;;;4826996;29;20050;-73
2022/10/05 11:00:27;;;;;;;0.10;0.10;;;22.40;82.20;;;;;;4811594;29;20101;-73
2022/10/05 11:10:15;;;;;;;0.20;0.20;;;22.30;81.00;;;;;;4826828;29;20497;-76
2022/10/05 11:13:01;;;;;;;0.10;0.10;;;22.70;79.80;;;;;;4826684;29;20435;-74
2022/10/05 11:15:43;;;;;;;0.20;0.20;;;22.90;81.30;;;;;;4858032;29;20028;-74
2022/10/05 11:18:54;;;;;;;0.38;0.38;;;22.70;81.70;;;;;;4869347;29;20381;-74
2022/10/05 11:21:59;;;;;;;1.75;0.68;;;22.40;79.70;;;;;;4978613;28;20027;-74
2022/10/05 11:24:58;;;;;;;0.35;0.32;;;22.00;82.50;;;;;;4978417;28;20043;-74
2022/10/05 11:27:53;;;;;;;0.40;0.40;;;21.90;83.50;;;;;;4978347;28;20327;-74
2022/10/05 11:31:24;;;;;;;0.50;0.50;;;21.80;81.90;;;;;;4978448;28;20030;-74
2022/10/05 11:34:27;;;;;;;0.10;0.10;;;21.60;82.30;;;;;;4884350;29;20037;-75
2022/10/05 11:37:15;;;;;;;0.20;0.20;;;21.50;83.10;;;;;;4900027;29;20041;-75
2022/10/05 11:40:20;;;;;;;18.95;1.40;;;21.10;84.30;;;;;;4972298;28;20046;-75
2022/10/05 11:43:29;;;;;;;0.13;0.13;;;21.00;83.90;;;;;;4978265;28;20027;-76
2022/10/05 11:49:56;;;;;;;0.68;0.38;;;20.80;84.40;;;;;;4978268;28;20046;-76
2022/10/05 11:52:46;;;;;;;0.30;0.30;;;20.80;84.40;;;;;;4977994;28;20031;-76
2022/10/05 11:55:47;;;;;;;0.17;0.17;;;20.50;86.10;;;;;;4960764;28;20423;-76
2022/10/05 11:59:11;;;;;;;1.65;0.85;;;20.50;85.90;;;;;;4977817;28;20039;-76
2022/10/05 12:01:53;;;;;;;0.20;0.20;;;20.40;87.40;;;;;;4881197;29;20080;-76
2022/10/05 12:05:01;;;;;;;0.10;0.10;;;20.40;86.50;;;;;;4880906;29;20044;-76
2022/10/05 12:07:58;;;;;;;0.10;0.10;;;20.30;84.00;;;;;;4880973;29;20037;-76
2022/10/05 12:11:16;;;;;;;0.15;0.15;;;20.30;87.40;;;;;;4880745;29;20124;-76
2022/10/05 12:14:42;;;;;;;0.10;0.10;;;20.10;84.60;;;;;;4880143;29;20036;-76
2022/10/05 12:17:53;;;;;;;0.00;0.00;;;19.90;86.80;;;;;;4825644;29;20518;-76
2022/10/05 12:21:15;;;;;;;0.32;0.32;;;19.90;88.60;;;;;;4825615;29;20034;-76
2022/10/05 12:24:18;;;;;;;0.65;0.65;;;20.00;87.80;;;;;;4810318;29;20042;-76
2022/10/05 12:27:00;;;;;;;0.00;0.00;;;19.90;85.20;;;;;;4855963;29;20049;-76
2022/10/05 12:29:49;;;;;;;0.20;0.20;;;19.70;87.60;;;;;;4880684;29;20110;-76
2022/10/05 12:33:15;;;;;;;1.17;1.02;;;19.60;86.30;;;;;;4880673;29;20094;-76
2022/10/05 12:39:24;;;;;;;0.30;0.30;;;19.70;87.70;;;;;;4977745;28;20046;-75
2022/10/05 12:42:30;;;;;;;0.30;0.30;;;19.70;88.40;;;;;;4977443;28;20058;-75
2022/10/05 12:45:23;;;;;;;0.20;0.15;;;19.50;88.70;;;;;;4977335;28;20031;-75
2022/10/05 12:48:01;;;;;;;0.22;0.22;;;19.50;87.90;;;;;;4977417;28;20029;-75
2022/10/05 12:50:41;;;;;;;0.00;0.00;;;19.60;89.30;;;;;;4977235;28;20038;-75
2022/10/05 12:53:53;;;;;;;0.05;0.05;;;19.60;89.50;;;;;;4977305;28;20351;-75
2022/10/05 12:56:32;;;;;;;0.03;0.03;;;19.60;90.70;;;;;;4977360;28;20062;-75
2022/10/05 12:59:37;;;;;;;0.00;0.00;;;19.60;89.10;;;;;;4960393;28;20101;-75
2022/10/05 13:06:02;;;;;;;0.22;0.22;;;19.40;90.00;;;;;;4977088;28;20058;-76
2022/10/05 13:09:01;;;;;;;0.10;0.10;;;19.30;88.00;;;;;;4977247;28;20035;-76
2022/10/05 13:12:02;;;;;;;0.03;0.00;;;19.30;88.90;;;;;;4977293;28;20147;-76
2022/10/05 13:18:13;;;;;;;0.98;0.68;;;19.40;90.50;;;;;;4977375;28;20050;-76
2022/10/05 13:21:12;;;;;;;0.20;0.20;;;19.40;91.70;;;;;;4960074;28;20110;-76
2022/10/05 13:24:53;;;;;;;0.08;0.08;;;19.40;90.70;;;;;;4977450;28;20019;-76
2022/10/05 13:27:31;;;;;;;0.10;0.10;;;19.40;92.00;;;;;;4883815;29;20061;-76
2022/10/05 13:30:17;;;;;;;0.15;0.15;;;19.40;92.50;;;;;;4868394;29;20084;-76
2022/10/05 13:33:33;;;;;;;0.00;0.00;;;19.40;91.80;;;;;;4868059;29;20048;-76
2022/10/05 13:36:37;;;;;;;0.30;0.30;;;19.40;93.10;;;;;;4865591;29;20090;-76
2022/10/05 13:39:37;;;;;;;0.20;0.20;;;19.30;91.70;;;;;;4956687;28;20459;-76
2022/10/05 13:42:44;;;;;;;0.00;0.00;;;19.20;90.00;;;;;;4980382;28;20022;-76
2022/10/05 13:45:21;;;;;;;;;;;19.00;92.30;;;;;;4980823;28;20390;-76
2022/10/05 13:48:34;;;;;;;0.52;0.52;;;18.80;92.50;;;;;;4980343;28;20001;-76
2022/10/05 13:51:46;;;;;;;0.30;0.30;;;18.80;92.90;;;;;;4962974;28;20829;-76
2022/10/05 13:57:46;;;;;;;0.40;0.40;;;18.80;93.10;;;;;;4980534;28;20335;-76
2022/10/05 14:00:45;;;;;;;0.93;0.40;;;18.80;91.10;;;;;;4980054;28;20081;-76
2022/10/05 14:03:38;;;;;;;0.13;0.10;;;18.90;91.90;;;;;;4980011;28;20062;-76
2022/10/05 14:06:12;;;;;;;0.40;0.40;;;18.90;91.70;;;;;;4979994;28;20355;-76
2022/10/05 14:09:02;;;;;;;0.47;0.47;;;18.90;89.70;;;;;;4979966;28;20050;-76
2022/10/05 14:12:03;;;;;;;0.55;0.20;;;18.80;89.90;;;;;;4979918;28;20034;-76
2022/10/05 14:14:52;;;;;;;0.30;0.30;;;18.80;91.50;;;;;;4979685;28;20045;-76
2022/10/05 14:17:40;;;;;;;1.45;1.20;;;18.90;91.30;;;;;;4979713;28;20434;-76
2022/10/05 14:20:33;;;;;;;0.00;0.00;;;18.80;90.20;;;;;;4963861;28;20066;-76
2022/10/05 14:23:13;;;;;;;0.85;0.43;;;18.90;93.10;;;;;;4979824;28;20054;-76
2022/10/05 14:25:52;;;;;;;0.10;0.10;;;18.90;91.20;;;;;;4979518;28;20030;-76
2022/10/05 14:28:42;;;;;;;0.13;0.13;;;18.90;93.00;;;;;;4964388;28;20047;-76
2022/10/05 14:32:12;;;;;;;0.00;0.00;;;18.90;92.30;;;;;;4962902;28;20114;-76
2022/10/05 14:38:06;;;;;;;0.10;0.10;;;19.00;94.10;;;;;;4979591;28;20101;-76
2022/10/05 14:40:41;;;;;;;0.32;0.32;;;19.00;92.40;;;;;;4962261;28;20078;-76
2022/10/05 14:43:22;;;;;;;0.52;0.52;;;19.00;91.30;;;;;;4979389;28;20041;-76
2022/10/05 14:49:30;;;;;;;0.00;0.00;;;19.00;91.50;;;;;;4979343;28;20033;-77
2022/10/05 14:53:13;;;;;;;0.15;0.15;;;19.00;93.20;;;;;;4962250;28;20035;-76
2022/10/05 14:55:50;;;;;;;0.52;0.40;;;19.00;91.60;;;;;;4826890;29;20043;-76
2022/10/05 14:58:59;;;;;;;0.05;0.05;;;19.10;93.20;;;;;;4826723;29;20399;-76
2022/10/05 15:01:51;;;;;;;0.25;0.25;;;19.00;92.80;;;;;;4876444;29;20045;-76
2022/10/05 15:04:50;;;;;;;0.43;0.35;;;19.00;91.70;;;;;;4881939;29;20045;-76
2022/10/05 15:07:19;;;;;;;0.22;0.22;;;18.90;92.90;;;;;;4869499;29;20031;-76
2022/10/05 15:10:25;;;;;;;0.55;0.55;;;18.80;92.80;;;;;;4866412;29;20123;-76
2022/10/05 15:13:33;;;;;;;0.35;0.35;;;18.80;93.90;;;;;;4882005;29;20045;-76
2022/10/05 15:16:01;;;;;;;0.10;0.10;;;18.80;92.60;;;;;;4859239;29;20126;-76
2022/10/05 15:18:47;;;;;;;0.20;0.20;;;18.70;93.40;;;;;;4866080;29;20350;-76
2022/10/05 15:21:34;;;;;;;;;;;18.80;92.60;;;;;;4866940;29;20096;-76
2022/10/05 15:27:04;;;;;;;0.32;0.32;;;18.70;92.80;;;;;;4881870;29;20331;-76
2022/10/05 15:30:14;;;;;;;0.03;0.03;;;18.60;93.90;;;;;;4881625;29;20415;-76
2022/10/05 15:33:17;;;;;;;0.30;0.20;;;18.50;94.30;;;;;;4881271;29;20049;-76
2022/10/05 15:36:13;;;;;;;0.00;0.00;;;18.40;96.00;;;;;;4881504;29;20033;-76
2022/10/05 15:39:21;;;;;;;0.00;0.00;;;18.40;95.60;;;;;;4959274;28;20078;-76
2022/10/05 15:42:14;;;;;;;0.28;0.28;;;18.30;94.60;;;;;;4978287;28;20050;-76
2022/10/05 15:45:19;;;;;;;0.05;0.05;;;18.30;98.00;;;;;;4978121;28;20034;-76
2022/10/05 15:47:50;;;;;;;0.40;0.40;;;18.20;97.80;;;;;;4960844;28;20026;-76
2022/10/05 15:50:55;;;;;;;0.40;0.40;;;18.20;97.50;;;;;;4978186;28;20054;-76
2022/10/05 15:54:39;;;;;;;0.15;0.15;;;18.10;97.50;;;;;;4960906;28;20038;-76
2022/10/05 15:56:57;;;;;;;0.28;0.28;;;18.00;98.00;;;;;;4972915;28;20134;-76
2022/10/05 16:00:24;;;;;;;0.00;0.00;;;18.00;98.00;;;;;;4978006;28;20109;-76
2022/10/05 16:03:26;;;;;;;0.17;0.17;;;18.00;98.00;;;;;;4881135;29;20045;-76
2022/10/05 16:09:59;;;;;;;0.22;0.22;;;17.70;96.80;;;;;;4881169;29;20048;-76
2022/10/05 16:12:52;;;;;;;0.10;0.10;;;17.50;97.10;;;;;;4880756;29;20041;-76
2022/10/05 16:15:53;;;;;;;0.13;0.13;;;17.50;98.00;;;;;;4880851;29;20025;-76
2022/10/05 16:18:36;;;;;;;0.10;0.10;;;17.50;98.00;;;;;;4880793;29;20080;-76
2022/10/05 16:25:02;;;;;;;0.20;0.20;;;17.50;98.00;;;;;;4881004;29;20453;-76
2022/10/05 16:28:04;;;;;;;0.35;0.35;;;17.40;98.00;;;;;;4880793;29;20029;-76
2022/10/05 16:31:29;;;;;;;0.70;0.70;;;17.30;98.00;;;;;;4880766;29;20036;-76
2022/10/05 16:34:55;;;;;;;0.43;0.43;;;17.30;98.00;;;;;;4883501;29;20036;-76
2022/10/05 16:38:00;;;;;;;0.32;0.32;;;17.20;98.00;;;;;;4807142;29;20066;-76
2022/10/05 16:41:12;;;;;;;0.40;0.40;;;17.10;98.00;;;;;;4807141;29;20073;-76
2022/10/05 16:47:18;;;;;;;0.75;0.75;;;16.90;98.00;;;;;;4807720;29;20050;-76
2022/10/05 16:50:26;;;;;;;0.10;0.10;;;16.80;98.00;;;;;;4807204;29;20463;-76
2022/10/05 16:53:28;;;;;;;0.32;0.32;;;16.70;98.00;;;;;;4807146;29;20035;-76
2022/10/05 16:59:52;;;;;;;0.32;0.32;;;16.40;98.00;;;;;;4770865;29;20061;-76
2022/10/05 17:02:55;;;;;;;0.32;0.32;;;16.30;98.00;;;;;;4828875;29;20091;-76
2022/10/05 17:06:11;;;;;;;0.20;0.20;;;16.20;98.00;;;;;;4902815;29;20049;-76
2022/10/05 17:09:19;;;;;;;0.10;0.10;;;16.00;98.00;;;;;;4902930;29;20043;-76
2022/10/05 17:16:03;;;;;;;0.13;0.13;;;15.80;98.00;;;;;;4847087;29;20108;-76
2022/10/05 17:19:18;;;;;;;0.10;0.10;;;15.70;98.00;;;;;;4867203;29;20057;-76
2022/10/05 17:22:21;;;;;;;0.10;0.10;;;15.60;98.00;;;;;;4902601;29;20033;-76
2022/10/05 17:29:05;;;;;;;0.35;0.35;;;15.40;98.00;;;;;;4902888;29;20052;-75
2022/10/05 17:39:22;;;;;;;0.38;0.28;;;15.20;98.00;;;;;;4902299;29;20112;-75
2022/10/05 17:42:27;;;;;;;0.30;0.30;;;15.10;98.00;;;;;;4828020;29;20187;-76
2022/10/05 17:45:22;;;;;;;0.52;0.52;;;15.00;98.00;;;;;;4827835;29;20443;-76
2022/10/05 17:48:10;;;;;;;0.30;0.20;;;15.00;98.00;;;;;;4821787;29;20179;-76
2022/10/05 17:57:10;;;;;;;0.03;0.03;;;14.80;98.00;;;;;;4827562;29;20048;-76
2022/10/05 18:00:03;;;;;;;0.20;0.20;;;14.80;98.00;;;;;;4827887;29;20046;-76
2022/10/05 18:02:41;;;;;;;0.52;0.52;;;14.80;98.00;;;;;;4881331;29;20370;-76
2022/10/05 18:08:39;;;;;;;0.20;0.20;;;14.80;98.00;;;;;;4883335;29;20116;-76
2022/10/05 18:11:15;;;;;;;0.38;0.38;;;14.90;98.00;;;;;;4884426;28;20028;-76
2022/10/05 18:17:13;;;;;;;0.30;0.30;;;14.90;98.00;;;;;;4939803;29;20095;-76
2022/10/05 18:20:25;;;;;;;0.20;0.20;;;14.90;98.00;;;;;;4939129;29;20044;-76
2022/10/05 18:23:37;;;;;;;0.25;0.25;;;14.80;98.00;;;;;;4933316;29;20094;-76
2022/10/05 18:26:06;;;;;;;0.10;0.10;;;14.80;98.00;;;;;;4938492;29;20047;-76
2022/10/05 18:33:09;;;;;;;0.00;0.00;;;14.90;98.00;;;;;;4901384;29;20444;-76
2022/10/05 18:35:53;;;;;;;0.22;0.20;;;14.90;98.00;;;;;;4901049;29;20040;-76
2022/10/05 18:38:53;;;;;;;3.92;1.20;;;15.00;98.00;;;;;;4901139;29;20048;-76
2022/10/05 18:42:34;;;;;;;0.13;0.13;;;15.10;98.00;;;;;;4901228;29;20036;-76
2022/10/05 18:45:46;;;;;;;0.50;0.50;;;15.20;98.00;;;;;;4845319;29;20054;-76
2022/10/05 18:49:01;;;;;;;0.30;0.22;;;15.40;98.00;;;;;;4858937;29;20304;-76
2022/10/05 18:52:07;;;;;;;0.38;0.38;;;15.40;98.00;;;;;;4863722;29;20360;-76
2022/10/05 18:58:38;;;;;;;0.00;0.00;;;15.50;98.00;;;;;;4863866;29;20121;-76
2022/10/05 19:01:41;;;;;;;0.17;0.17;;;15.50;98.00;;;;;;4863523;29;20041;-76
2022/10/05 19:08:06;;;;;;;0.05;0.05;;;15.60;98.00;;;;;;4919848;29;20043;-76
2022/10/05 19:10:45;;;;;;;1.10;0.60;;;15.70;98.00;;;;;;4919470;29;20043;-77
2022/10/05 19:13:49;;;;;;;0.10;0.10;;;15.80;98.00;;;;;;4919477;29;20084;-77
2022/10/05 19:16:37;;;;;;;0.00;0.00;;;15.90;98.00;;;;;;4919221;29;20147;-77
2022/10/05 19:19:24;;;;;;;0.35;0.35;;;16.00;98.00;;;;;;4927690;28;20331;-76
2022/10/05 19:22:46;;;;;;;0.43;0.43;;;16.00;98.00;;;;;;4977998;28;20033;-76
2022/10/05 19:25:49;;;;;;;0.40;0.32;;;16.00;98.00;;;;;;4961397;28;20031;-76
2022/10/05 19:28:51;;;;;;;0.25;0.25;;;16.10;98.00;;;;;;4978390;28;20106;-77
2022/10/05 19:32:06;;;;;;;0.43;0.43;;;16.20;98.00;;;;;;4961396;28;20042;-76
2022/10/05 19:38:40;;;;;;;0.38;0.38;;;16.20;98.00;;;;;;4978445;28;20487;-76
2022/10/05 19:41:36;;;;;;;0.22;0.22;;;16.20;98.00;;;;;;4978308;28;20027;-76
2022/10/05 19:48:12;;;;;;;0.30;0.30;;;16.30;98.00;;;;;;4978588;28;20081;-76